createdAt,value
2022-10-02T00:01:54.512Z,65.80
2022-10-02T00:04:24.086Z,65.10
2022-10-02T00:06:52.973Z,65.20
2022-10-02T00:09:26.520Z,65.20
2022-10-02T00:11:55.906Z,65.10
2022-10-02T00:14:23.263Z,65.80
2022-10-02T00:16:52.088Z,65.00
2022-10-02T00:19:19.777Z,66.70
2022-10-02T00:22:02.361Z,65.30
2022-10-02T00:24:38.706Z,65.30
2022-10-02T00:27:27.288Z,65.20
2022-10-02T00:29:55.430Z,65.20
2022-10-02T00:32:34.449Z,65.20
2022-10-02T00:35:24.314Z,65.20
2022-10-02T00:38:10.226Z,65.20
2022-10-02T00:40:41.956Z,65.30
2022-10-02T00:43:14.799Z,65.40
2022-10-02T00:45:50.787Z,65.40
2022-10-02T00:48:20.422Z,65.20
2022-10-02T00:51:00.601Z,65.20
2022-10-02T00:53:30.266Z,65.30
2022-10-02T00:56:09.057Z,65.30
2022-10-02T00:58:58.014Z,65.30
2022-10-02T01:01:29.966Z,65.40
2022-10-02T01:03:57.411Z,65.20
2022-10-02T01:06:25.142Z,65.40
2022-10-02T01:08:54.699Z,65.30
2022-10-02T01:11:23.855Z,65.50
2022-10-02T01:13:51.380Z,65.50
2022-10-02T01:16:18.306Z,65.50
2022-10-02T01:18:47.931Z,65.50
2022-10-02T01:21:31.102Z,65.50
2022-10-02T01:24:10.114Z,65.50
2022-10-02T01:26:37.014Z,65.60
2022-10-02T01:29:04.408Z,65.60
2022-10-02T01:31:32.491Z,65.40
2022-10-02T01:33:59.921Z,65.30
2022-10-02T01:36:26.975Z,65.30
2022-10-02T01:38:54.380Z,65.40
2022-10-02T01:41:21.107Z,65.20
2022-10-02T01:43:51.567Z,65.20
2022-10-02T01:46:27.604Z,65.30
2022-10-02T01:49:05.858Z,65.30
2022-10-02T01:51:44.748Z,65.30
2022-10-02T01:54:20.684Z,65.40
2022-10-02T01:56:47.269Z,65.30
2022-10-02T01:59:23.880Z,65.40
2022-10-02T02:02:11.759Z,65.60
2022-10-02T02:04:54.865Z,65.30
2022-10-02T02:07:30.364Z,65.20
2022-10-02T02:10:08.741Z,65.20
2022-10-02T02:12:40.151Z,65.30
2022-10-02T02:15:09.833Z,65.30
2022-10-02T02:17:43.121Z,65.20
2022-10-02T02:20:13.150Z,65.30
2022-10-02T02:22:43.623Z,65.20
2022-10-02T02:25:14.227Z,65.20
2022-10-02T02:27:43.069Z,66.00
2022-10-02T02:30:12.115Z,65.20
2022-10-02T02:32:49.171Z,65.40
2022-10-02T02:35:18.433Z,65.10
2022-10-02T02:37:46.509Z,65.30
2022-10-02T02:40:18.905Z,65.20
2022-10-02T02:42:58.173Z,65.10
2022-10-02T02:45:27.266Z,65.20
2022-10-02T02:47:55.661Z,65.50
2022-10-02T02:50:25.129Z,65.20
2022-10-02T02:52:55.626Z,66.20
2022-10-02T02:55:23.584Z,65.10
2022-10-02T02:58:02.432Z,65.50
2022-10-02T03:00:29.224Z,65.00
2022-10-02T03:02:55.909Z,65.20
2022-10-02T03:05:24.328Z,65.10
2022-10-02T03:07:55.188Z,65.60
2022-10-02T03:10:30.090Z,65.20
2022-10-02T03:13:02.364Z,66.50
2022-10-02T03:15:49.338Z,65.20
2022-10-02T03:18:34.733Z,65.20
2022-10-02T03:21:07.882Z,65.20
2022-10-02T03:23:50.192Z,65.20
2022-10-02T03:26:24.796Z,65.50
2022-10-02T03:28:56.466Z,65.30
2022-10-02T03:31:24.916Z,65.20
2022-10-02T03:33:53.711Z,65.20
2022-10-02T03:36:21.731Z,66.70
2022-10-02T03:39:00.817Z,65.20
2022-10-02T03:41:35.083Z,65.20
2022-10-02T03:44:01.954Z,65.40
2022-10-02T03:46:28.679Z,65.10
2022-10-02T03:48:56.622Z,65.40
2022-10-02T03:51:23.962Z,65.20
2022-10-02T03:53:50.708Z,64.90
2022-10-02T03:56:33.425Z,65.90
2022-10-02T03:59:02.610Z,64.80
2022-10-02T04:01:35.352Z,64.70
2022-10-02T04:04:04.427Z,64.80
2022-10-02T04:06:43.306Z,64.80
2022-10-02T04:09:12.453Z,65.20
2022-10-02T04:11:50.570Z,65.00
2022-10-02T04:14:22.627Z,65.00
2022-10-02T04:16:57.395Z,65.00
2022-10-02T04:19:32.751Z,65.30
2022-10-02T04:22:00.631Z,65.00
2022-10-02T04:24:47.652Z,64.90
2022-10-02T04:27:33.175Z,64.70
2022-10-02T04:30:01.452Z,65.00
2022-10-02T04:32:32.315Z,65.10
2022-10-02T04:34:59.307Z,65.00
2022-10-02T04:37:36.222Z,64.80
2022-10-02T04:40:20.895Z,64.90
2022-10-02T04:42:53.340Z,65.00
2022-10-02T04:45:27.866Z,65.20
2022-10-02T04:48:06.852Z,65.00
2022-10-02T04:50:52.679Z,64.90
2022-10-02T04:53:19.359Z,65.00
2022-10-02T04:56:01.184Z,64.90
2022-10-02T04:58:48.281Z,65.30
2022-10-02T05:01:33.523Z,64.60
2022-10-02T05:04:09.296Z,64.70
2022-10-02T05:06:54.709Z,64.80
2022-10-02T05:09:43.042Z,64.70
2022-10-02T05:12:28.667Z,64.80
2022-10-02T05:14:55.291Z,64.90
2022-10-02T05:17:54.642Z,64.80
2022-10-02T05:20:28.815Z,64.90
2022-10-02T05:23:07.357Z,65.30
2022-10-02T05:25:34.889Z,65.10
2022-10-02T05:28:01.618Z,65.20
2022-10-02T05:30:30.489Z,65.40
2022-10-02T05:33:03.082Z,65.00
2022-10-02T05:35:48.529Z,65.00
2022-10-02T05:38:18.246Z,65.00
2022-10-02T05:41:11.307Z,64.80
2022-10-02T05:44:04.438Z,65.00
2022-10-02T05:46:35.490Z,65.00
2022-10-02T05:49:28.408Z,65.00
2022-10-02T05:51:59.728Z,65.10
2022-10-02T05:54:44.064Z,65.20
2022-10-02T05:57:18.501Z,65.40
2022-10-02T05:59:50.583Z,65.10
2022-10-02T06:02:25.825Z,65.50
2022-10-02T06:04:57.340Z,64.90
2022-10-02T06:07:25.788Z,65.80
2022-10-02T06:09:57.080Z,64.90
2022-10-02T06:12:39.862Z,64.80
2022-10-02T06:15:10.068Z,65.00
2022-10-02T06:17:40.855Z,64.70
2022-10-02T06:20:33.829Z,64.90
2022-10-02T06:23:10.561Z,64.80
2022-10-02T06:25:39.710Z,65.30
2022-10-02T06:28:07.588Z,65.10
2022-10-02T06:30:37.263Z,65.30
2022-10-02T06:33:06.895Z,65.50
2022-10-02T06:35:45.795Z,65.40
2022-10-02T06:38:22.422Z,65.30
2022-10-02T06:40:54.938Z,64.20
2022-10-02T06:43:34.809Z,65.00
2022-10-02T06:46:04.933Z,65.10
2022-10-02T06:48:40.955Z,65.40
2022-10-02T06:51:14.991Z,65.60
2022-10-02T06:54:04.610Z,65.90
2022-10-02T06:56:46.557Z,65.80
2022-10-02T06:59:31.854Z,66.60
2022-10-02T07:02:17.575Z,65.80
2022-10-02T07:04:47.423Z,66.10
2022-10-02T07:07:14.030Z,65.60
2022-10-02T07:10:04.409Z,65.40
2022-10-02T07:12:30.977Z,65.60
2022-10-02T07:15:27.053Z,65.90
2022-10-02T07:17:59.731Z,67.40
2022-10-02T07:20:32.824Z,65.90
2022-10-02T07:23:07.741Z,65.50
2022-10-02T07:25:43.005Z,66.00
2022-10-02T07:28:15.634Z,66.10
2022-10-02T07:30:56.463Z,66.20
2022-10-02T07:33:29.871Z,65.90
2022-10-02T07:36:05.309Z,66.10
2022-10-02T07:38:44.232Z,65.90
2022-10-02T07:41:20.397Z,65.90
2022-10-02T07:43:49.962Z,66.20
2022-10-02T07:46:22.769Z,66.20
2022-10-02T07:48:55.450Z,66.10
2022-10-02T07:51:51.559Z,66.30
2022-10-02T07:54:18.273Z,66.30
2022-10-02T07:56:45.635Z,66.50
2022-10-02T07:59:16.160Z,66.10
2022-10-02T08:01:43.920Z,66.00
2022-10-02T08:04:12.656Z,66.00
2022-10-02T08:06:40.042Z,65.80
2022-10-02T08:09:12.337Z,65.70
2022-10-02T08:11:43.301Z,66.10
2022-10-02T08:14:18.970Z,66.20
2022-10-02T08:16:48.370Z,66.00
2022-10-02T08:19:20.443Z,66.00
2022-10-02T08:21:49.211Z,66.20
2022-10-02T08:24:24.377Z,66.00
2022-10-02T08:27:02.923Z,66.00
2022-10-02T08:29:48.168Z,65.90
2022-10-02T08:32:15.156Z,66.70
2022-10-02T08:34:42.013Z,66.00
2022-10-02T08:37:28.784Z,66.10
2022-10-02T08:40:13.975Z,66.30
2022-10-02T08:43:06.490Z,66.40
2022-10-02T08:45:40.971Z,66.40
2022-10-02T08:48:23.329Z,66.40
2022-10-02T08:51:08.748Z,66.30
2022-10-02T08:53:49.120Z,66.40
2022-10-02T08:56:34.850Z,66.40
2022-10-02T08:59:01.639Z,66.40
2022-10-02T09:01:28.255Z,66.50
2022-10-02T09:04:04.359Z,66.90
2022-10-02T09:06:38.609Z,66.80
2022-10-02T09:09:11.328Z,67.00
2022-10-02T09:11:45.276Z,66.80
2022-10-02T09:14:20.449Z,66.80
2022-10-02T09:16:50.163Z,66.80
2022-10-02T09:19:35.515Z,66.70
2022-10-02T09:22:21.007Z,66.80
2022-10-02T09:24:56.367Z,66.70
2022-10-02T09:27:26.023Z,67.10
2022-10-02T09:30:11.497Z,67.10
2022-10-02T09:32:47.373Z,67.10
2022-10-02T09:35:13.982Z,67.00
2022-10-02T09:37:59.495Z,67.00
2022-10-02T09:40:44.542Z,66.70
2022-10-02T09:43:18.375Z,66.90
2022-10-02T09:45:57.401Z,66.90
2022-10-02T09:48:33.152Z,66.80
2022-10-02T09:51:18.660Z,66.90
2022-10-02T09:54:14.758Z,67.10
2022-10-02T09:56:53.691Z,67.10
2022-10-02T09:59:26.292Z,67.00
2022-10-02T10:02:00.099Z,66.80
2022-10-02T10:05:07.209Z,67.00
2022-10-02T10:07:49.151Z,67.00
2022-10-02T10:10:31.253Z,66.90
2022-10-02T10:13:04.160Z,66.90
2022-10-02T10:15:43.046Z,66.80
2022-10-02T10:18:27.435Z,67.10
2022-10-02T10:21:06.488Z,67.20
2022-10-02T10:23:42.412Z,67.10
2022-10-02T10:26:09.779Z,67.10
2022-10-02T10:28:39.522Z,67.10
2022-10-02T10:31:06.126Z,67.00
2022-10-02T10:33:40.123Z,66.90
2022-10-02T10:36:33.761Z,66.90
2022-10-02T10:39:06.311Z,66.90
2022-10-02T10:41:51.749Z,67.10
2022-10-02T10:44:27.900Z,67.00
2022-10-02T10:46:54.499Z,66.90
2022-10-02T10:49:35.530Z,66.80
2022-10-02T10:52:13.966Z,67.00
2022-10-02T10:55:09.905Z,67.10
2022-10-02T10:57:42.882Z,67.10
2022-10-02T11:00:12.891Z,67.00
2022-10-02T11:02:48.769Z,66.90
2022-10-02T11:05:34.369Z,67.10
2022-10-02T11:08:02.279Z,66.80
2022-10-02T11:10:28.891Z,67.00
2022-10-02T11:13:09.604Z,67.10
2022-10-02T11:15:56.451Z,67.20
2022-10-02T11:18:26.627Z,67.10
2022-10-02T11:20:56.094Z,67.20
2022-10-02T11:23:39.741Z,67.30
2022-10-02T11:26:15.399Z,67.50
2022-10-02T11:28:56.297Z,67.60
2022-10-02T11:31:42.523Z,67.60
2022-10-02T11:34:16.715Z,67.40
2022-10-02T11:36:52.679Z,67.60
2022-10-02T11:39:38.120Z,67.60
2022-10-02T11:42:15.290Z,67.70
2022-10-02T11:45:12.583Z,67.90
2022-10-02T11:48:09.218Z,67.80
2022-10-02T11:50:35.822Z,67.70
2022-10-02T11:53:20.964Z,67.60
2022-10-02T11:56:14.375Z,67.80
2022-10-02T11:58:54.038Z,67.90
2022-10-02T12:01:36.154Z,68.10
2022-10-02T12:04:22.362Z,67.80
2022-10-02T12:07:07.452Z,67.80
2022-10-02T12:09:44.290Z,67.90
2022-10-02T12:12:27.897Z,68.20
2022-10-02T12:15:02.179Z,68.10
2022-10-02T12:17:53.339Z,68.00
2022-10-02T12:20:45.115Z,68.20
2022-10-02T12:23:38.184Z,67.90
2022-10-02T12:26:29.350Z,68.00
2022-10-02T12:29:19.100Z,68.20
2022-10-02T12:31:52.041Z,68.30
2022-10-02T12:34:21.821Z,68.20
2022-10-02T12:36:48.414Z,68.30
2022-10-02T12:39:24.324Z,68.40
2022-10-02T12:42:11.658Z,68.50
2022-10-02T12:44:44.863Z,68.60
2022-10-02T12:47:22.968Z,68.90
2022-10-02T12:49:58.459Z,68.00
2022-10-02T12:52:40.624Z,68.40
2022-10-02T12:55:07.224Z,68.40
2022-10-02T12:57:52.497Z,68.30
2022-10-02T13:00:24.404Z,68.50
2022-10-02T13:03:02.018Z,68.70
2022-10-02T13:05:36.887Z,68.80
2022-10-02T13:08:22.310Z,68.60
2022-10-02T13:10:57.390Z,68.40
2022-10-02T13:13:42.715Z,68.40
2022-10-02T13:16:22.942Z,68.50
2022-10-02T13:18:59.565Z,68.60
2022-10-02T13:21:35.807Z,68.60
2022-10-02T13:24:12.706Z,68.50
2022-10-02T13:26:40.095Z,68.50
2022-10-02T13:29:06.694Z,68.60
2022-10-02T13:31:44.112Z,69.00
2022-10-02T13:34:29.377Z,68.80
2022-10-02T13:37:15.458Z,68.60
2022-10-02T13:39:58.395Z,68.80
2022-10-02T13:42:28.922Z,69.00
2022-10-02T13:44:59.158Z,68.70
2022-10-02T13:47:31.718Z,68.70
2022-10-02T13:50:04.128Z,68.60
2022-10-02T13:52:35.993Z,68.40
2022-10-02T13:55:18.869Z,68.80
2022-10-02T13:57:54.603Z,68.00
2022-10-02T14:00:40.209Z,68.10
2022-10-02T14:03:17.692Z,68.10
2022-10-02T14:05:44.268Z,68.10
2022-10-02T14:08:26.287Z,68.30
2022-10-02T14:11:06.804Z,68.20
2022-10-02T14:13:39.426Z,68.20
2022-10-02T14:16:07.552Z,68.30
2022-10-02T14:18:43.071Z,68.40
2022-10-02T14:21:22.382Z,68.30
2022-10-02T14:24:01.274Z,68.30
2022-10-02T14:26:40.078Z,68.20
2022-10-02T14:29:22.072Z,68.30
2022-10-02T14:32:03.111Z,68.10
2022-10-02T14:34:46.643Z,68.20
2022-10-02T14:37:26.102Z,68.20
2022-10-02T14:39:55.090Z,68.20
2022-10-02T14:42:28.608Z,68.40
2022-10-02T14:45:14.059Z,68.30
2022-10-02T14:47:42.325Z,68.20
2022-10-02T14:50:33.550Z,68.20
2022-10-02T14:53:00.143Z,68.10
2022-10-02T14:55:37.146Z,68.20
2022-10-02T14:58:06.586Z,68.10
2022-10-02T15:00:42.260Z,68.10
2022-10-02T15:03:27.535Z,67.90
2022-10-02T15:06:07.182Z,68.00
2022-10-02T15:08:33.817Z,68.00
2022-10-02T15:11:01.111Z,67.90
2022-10-02T15:13:30.795Z,67.90
2022-10-02T15:16:26.807Z,68.00
2022-10-02T15:19:03.740Z,67.80
2022-10-02T15:21:30.354Z,67.80
2022-10-02T15:23:58.375Z,67.70
2022-10-02T15:26:26.734Z,67.80
2022-10-02T15:28:53.427Z,67.70
2022-10-02T15:31:35.954Z,67.60
2022-10-02T15:34:02.829Z,67.60
2022-10-02T15:36:29.500Z,67.80
2022-10-02T15:39:15.053Z,67.60
2022-10-02T15:42:00.411Z,67.60
2022-10-02T15:44:33.173Z,67.40
2022-10-02T15:47:02.892Z,67.50
2022-10-02T15:49:56.497Z,67.40
2022-10-02T15:52:41.931Z,67.40
2022-10-02T15:55:08.578Z,67.40
2022-10-02T15:57:41.050Z,67.50
2022-10-02T16:00:10.891Z,67.40
2022-10-02T16:02:37.512Z,67.40
2022-10-02T16:05:23.014Z,67.40
2022-10-02T16:08:08.178Z,67.40
2022-10-02T16:10:41.587Z,67.30
2022-10-02T16:13:08.189Z,67.20
2022-10-02T16:15:55.140Z,67.40
2022-10-02T16:18:45.379Z,68.00
2022-10-02T16:21:12.732Z,67.30
2022-10-02T16:24:01.614Z,67.30
2022-10-02T16:27:00.818Z,67.30
2022-10-02T16:29:27.474Z,67.30
2022-10-02T16:32:02.086Z,67.20
2022-10-02T16:34:39.263Z,67.30
2022-10-02T16:37:24.731Z,67.30
2022-10-02T16:39:55.353Z,67.20
2022-10-02T16:42:32.137Z,67.30
2022-10-02T16:44:58.751Z,67.30
2022-10-02T16:47:44.463Z,67.30
2022-10-02T16:50:26.181Z,67.20
2022-10-02T16:52:56.579Z,67.30
2022-10-02T16:55:28.117Z,67.30
2022-10-02T16:57:59.531Z,67.30
2022-10-02T17:00:35.708Z,67.30
2022-10-02T17:03:19.618Z,67.30
2022-10-02T17:05:51.463Z,67.20
2022-10-02T17:08:30.902Z,67.30
2022-10-02T17:11:09.571Z,67.30
2022-10-02T17:13:46.802Z,67.20
2022-10-02T17:16:20.920Z,67.30
2022-10-02T17:18:58.201Z,67.30
2022-10-02T17:21:39.927Z,67.30
2022-10-02T17:24:26.891Z,67.30
2022-10-02T17:26:56.187Z,67.30
2022-10-02T17:29:29.978Z,67.40
2022-10-02T17:31:58.658Z,67.30
2022-10-02T17:34:45.010Z,67.30
2022-10-02T17:37:17.823Z,67.20
2022-10-02T17:39:44.467Z,67.20
2022-10-02T17:42:32.607Z,67.30
2022-10-02T17:45:08.183Z,67.20
2022-10-02T17:47:40.782Z,67.20
2022-10-02T17:50:22.705Z,67.30
2022-10-02T17:53:27.174Z,67.30
2022-10-02T17:56:31.103Z,67.40
2022-10-02T17:59:11.227Z,67.20
2022-10-02T18:01:42.631Z,67.00
2022-10-02T18:04:18.165Z,68.00
2022-10-02T18:06:44.762Z,67.10
2022-10-02T18:09:19.900Z,67.10
2022-10-02T18:11:50.049Z,67.20
2022-10-02T18:14:26.231Z,67.40
2022-10-02T18:17:01.946Z,67.40
2022-10-02T18:19:35.859Z,67.20
2022-10-02T18:22:05.299Z,67.10
2022-10-02T18:24:44.405Z,67.00
2022-10-02T18:27:29.932Z,67.20
2022-10-02T18:30:08.827Z,67.10
2022-10-02T18:32:54.829Z,67.20
2022-10-02T18:35:40.164Z,67.40
2022-10-02T18:38:19.109Z,67.20
2022-10-02T18:41:07.026Z,67.10
2022-10-02T18:43:41.188Z,67.10
2022-10-02T18:46:32.238Z,67.00
2022-10-02T18:49:11.945Z,66.80
2022-10-02T18:51:57.669Z,67.10
2022-10-02T18:54:30.247Z,67.20
2022-10-02T18:57:02.640Z,67.20
2022-10-02T18:59:47.626Z,67.20
2022-10-02T19:02:33.109Z,67.10
2022-10-02T19:05:08.465Z,66.80
2022-10-02T19:07:43.847Z,67.60
2022-10-02T19:10:33.591Z,67.00
2022-10-02T19:13:17.807Z,67.10
2022-10-02T19:15:45.949Z,67.20
2022-10-02T19:18:17.405Z,67.10
2022-10-02T19:20:49.097Z,67.10
2022-10-02T19:23:19.134Z,68.40
2022-10-02T19:25:47.252Z,67.10
2022-10-02T19:28:17.285Z,66.80
2022-10-02T19:30:47.436Z,66.80
2022-10-02T19:33:20.063Z,66.90
2022-10-02T19:35:46.813Z,67.10
2022-10-02T19:38:32.325Z,67.00
2022-10-02T19:41:00.777Z,66.90
2022-10-02T19:43:28.892Z,67.00
2022-10-02T19:45:58.382Z,67.10
2022-10-02T19:48:26.554Z,67.00
2022-10-02T19:50:57.425Z,66.90
2022-10-02T19:53:30.340Z,66.80
2022-10-02T19:55:58.180Z,66.90
2022-10-02T19:58:46.442Z,67.00
2022-10-02T20:01:36.136Z,66.80
2022-10-02T20:04:03.595Z,66.70
2022-10-02T20:06:34.652Z,66.70
2022-10-02T20:09:05.635Z,66.70
2022-10-02T20:11:32.287Z,66.70
2022-10-02T20:14:08.150Z,66.70
2022-10-02T20:16:53.630Z,66.50
2022-10-02T20:19:23.632Z,66.50
2022-10-02T20:22:00.233Z,66.60
2022-10-02T20:24:45.050Z,66.50
2022-10-02T20:27:31.266Z,66.50
2022-10-02T20:30:00.894Z,66.50
2022-10-02T20:32:30.568Z,66.60
2022-10-02T20:35:23.846Z,66.70
2022-10-02T20:37:52.866Z,67.60
2022-10-02T20:40:22.463Z,67.10
2022-10-02T20:43:01.955Z,66.90
2022-10-02T20:45:38.210Z,66.80
2022-10-02T20:48:08.810Z,66.80
2022-10-02T20:50:42.841Z,66.80
2022-10-02T20:53:24.819Z,66.70
2022-10-02T20:56:10.108Z,66.70
2022-10-02T20:58:42.815Z,66.70
2022-10-02T21:01:09.499Z,66.40
2022-10-02T21:03:45.393Z,66.80
2022-10-02T21:06:15.026Z,66.80
2022-10-02T21:08:51.501Z,66.70
2022-10-02T21:11:29.099Z,66.80
2022-10-02T21:13:55.682Z,66.70
2022-10-02T21:16:29.341Z,66.60
2022-10-02T21:19:04.431Z,66.60
2022-10-02T21:21:40.641Z,67.20
2022-10-02T21:24:24.886Z,66.80
2022-10-02T21:27:07.003Z,66.80
2022-10-02T21:29:33.702Z,66.70
2022-10-02T21:32:24.761Z,66.50
2022-10-02T21:34:51.531Z,66.40
2022-10-02T21:37:27.444Z,66.40
2022-10-02T21:40:12.814Z,66.40
2022-10-02T21:42:40.260Z,66.40
2022-10-02T21:45:25.991Z,66.20
2022-10-02T21:48:21.939Z,66.20
2022-10-02T21:51:07.515Z,66.30
2022-10-02T21:53:44.030Z,66.20
2022-10-02T21:56:33.958Z,66.30
2022-10-02T21:59:35.979Z,66.30
2022-10-02T22:02:14.630Z,66.30
2022-10-02T22:04:59.942Z,66.20
2022-10-02T22:07:44.181Z,66.40
2022-10-02T22:10:10.853Z,66.40
2022-10-02T22:12:49.807Z,66.40
2022-10-02T22:15:27.343Z,66.30
2022-10-02T22:17:57.055Z,66.30
2022-10-02T22:20:23.706Z,66.30
2022-10-02T22:23:12.062Z,66.30
2022-10-02T22:25:57.562Z,66.30
2022-10-02T22:28:44.158Z,66.40
2022-10-02T22:31:35.417Z,66.40
2022-10-02T22:34:15.354Z,66.50
2022-10-02T22:36:42.468Z,66.40
2022-10-02T22:39:18.922Z,66.40
2022-10-02T22:41:51.034Z,66.50
2022-10-02T22:44:18.028Z,66.40
2022-10-02T22:46:51.761Z,66.50
2022-10-02T22:49:25.346Z,67.00
2022-10-02T22:52:15.229Z,67.30
2022-10-02T22:54:48.544Z,66.40
2022-10-02T22:57:18.283Z,66.40
2022-10-02T22:59:49.818Z,66.30
2022-10-02T23:02:26.886Z,66.90
2022-10-02T23:05:12.528Z,66.30
2022-10-02T23:07:47.092Z,66.30
2022-10-02T23:10:17.473Z,66.30
2022-10-02T23:12:51.606Z,66.30
2022-10-02T23:15:31.051Z,66.40
2022-10-02T23:18:01.305Z,66.40
2022-10-02T23:20:49.194Z,66.70
2022-10-02T23:23:20.222Z,66.40
2022-10-02T23:25:53.642Z,66.40
2022-10-02T23:28:33.943Z,66.30
2022-10-02T23:31:08.427Z,66.40
2022-10-02T23:33:41.019Z,66.20
2022-10-02T23:36:18.891Z,66.20
2022-10-02T23:38:51.705Z,66.20
2022-10-02T23:41:39.393Z,66.20
2022-10-02T23:44:25.358Z,67.40
2022-10-02T23:46:51.995Z,66.90
2022-10-02T23:49:20.715Z,66.40
2022-10-02T23:52:09.609Z,66.30
2022-10-02T23:54:54.983Z,66.20
2022-10-02T23:57:29.834Z,66.20
